首页
METAR-TAF:

METAR-TAF

机场 :

利蒙, 哥斯達黎加

纬度: 10-00N, 经度: 083-03W, 海拔: 5米

当前天气观测

该预报发布于11小时和34分钟前的00:00 UTC
风速4节,风向南转西南
温度 25°C
湿度 94%
气压 1009 hPa
能见度10公里或以上
散云层高于1500英尺
阴天层高于9000英尺

METAR: MRLM 190000Z 20004KT 9999 SCT015 OVC090 25/24 A2980 REDZ

时间: 05:34 (11:34 UTC)

预报

该预报发布于6小时和19分钟前的05:15 UTC
预报有效从19日的 06点(UTC)到 20日的 06点(UTC)
风速5节,风向西南
能见度10公里或以上
少量云层高于3000英尺
短暂存在
从 19日的 09点(UTC)到 19日的 15点(UTC)
能見度: 5000
多云层高于1500英尺
成为
从 19日的 14点(UTC)到 19日的 17点(UTC)
风速7节,风向东北
成为
从 20日的 00点(UTC)到 20日的 03点(UTC)
风速5节,风向西转西南

TAF: MRLM 190515Z 1906/2006 23005KT 9999 FEW030 TX31/1921Z TN23/1911Z TEMPO 1909/1915 5000 RA BKN015 BECMG 1914/1917 05007KT BECMG 2000/2003 24005KT

超过4000个机场的气象观测和天气预报(METAR&TAF报告)。

可查询的气象台以黄色和红色小点在地图上表示。

将鼠标移到小点上方,可查看气象台名称。

然后点击查看天气观测和预报。

如需切换地图:点击带黑十字的绿色按钮放大地图;点击带横线的绿色按钮缩小地图;或者点击绿色箭头查看邻近地区的地图。


METAR-TAF: